sensor_id;sensor_type;location;lat;lon;timestamp;temperature;humidity
43884;DHT22;29544;52.018;5.810;2023-03-20T00:02:17;19.90;52.20
43884;DHT22;29544;52.018;5.810;2023-03-20T00:04:43;19.90;52.20
43884;DHT22;29544;52.018;5.810;2023-03-20T00:07:08;19.90;52.30
43884;DHT22;29544;52.018;5.810;2023-03-20T00:09:37;19.90;52.20
43884;DHT22;29544;52.018;5.810;2023-03-20T00:12:03;19.80;52.20
43884;DHT22;29544;52.018;5.810;2023-03-20T00:14:29;19.80;52.20
43884;DHT22;29544;52.018;5.810;2023-03-20T00:16:55;19.80;52.20
43884;DHT22;29544;52.018;5.810;2023-03-20T00:19:26;19.80;52.20
43884;DHT22;29544;52.018;5.810;2023-03-20T00:21:54;19.70;52.10
43884;DHT22;29544;52.018;5.810;2023-03-20T00:24:20;19.70;52.20
43884;DHT22;29544;52.018;5.810;2023-03-20T00:26:48;19.70;52.20
43884;DHT22;29544;52.018;5.810;2023-03-20T00:29:40;19.70;52.20
43884;DHT22;29544;52.018;5.810;2023-03-20T00:32:10;19.70;52.20
43884;DHT22;29544;52.018;5.810;2023-03-20T00:34:36;19.60;52.20
43884;DHT22;29544;52.018;5.810;2023-03-20T00:37:02;19.60;52.20
43884;DHT22;29544;52.018;5.810;2023-03-20T00:39:28;19.60;52.20
43884;DHT22;29544;52.018;5.810;2023-03-20T00:42:03;19.60;52.20
43884;DHT22;29544;52.018;5.810;2023-03-20T00:44:36;19.60;52.20
43884;DHT22;29544;52.018;5.810;2023-03-20T00:47:09;19.50;52.20
43884;DHT22;29544;52.018;5.810;2023-03-20T00:49:36;19.50;52.20
43884;DHT22;29544;52.018;5.810;2023-03-20T00:52:03;19.50;52.20
43884;DHT22;29544;52.018;5.810;2023-03-20T00:54:30;19.50;52.20
43884;DHT22;29544;52.018;5.810;2023-03-20T00:59:30;19.50;52.20
43884;DHT22;29544;52.018;5.810;2023-03-20T01:01:58;19.40;52.20
43884;DHT22;29544;52.018;5.810;2023-03-20T01:04:35;19.40;52.20
43884;DHT22;29544;52.018;5.810;2023-03-20T01:07:01;19.40;52.20
43884;DHT22;29544;52.018;5.810;2023-03-20T01:09:26;19.40;52.20
43884;DHT22;29544;52.018;5.810;2023-03-20T01:11:52;19.40;52.30
43884;DHT22;29544;52.018;5.810;2023-03-20T01:14:17;19.30;52.20
43884;DHT22;29544;52.018;5.810;2023-03-20T01:16:43;19.30;52.20
43884;DHT22;29544;52.018;5.810;2023-03-20T01:19:13;19.40;52.30
43884;DHT22;29544;52.018;5.810;2023-03-20T01:21:40;19.30;52.20
43884;DHT22;29544;52.018;5.810;2023-03-20T01:24:06;19.30;52.30
43884;DHT22;29544;52.018;5.810;2023-03-20T01:26:35;19.30;52.30
43884;DHT22;29544;52.018;5.810;2023-03-20T01:29:01;19.30;52.30
43884;DHT22;29544;52.018;5.810;2023-03-20T01:31:27;19.30;52.30
43884;DHT22;29544;52.018;5.810;2023-03-20T01:33:52;19.20;52.30
43884;DHT22;29544;52.018;5.810;2023-03-20T01:36:21;19.20;52.30
43884;DHT22;29544;52.018;5.810;2023-03-20T01:38:53;19.20;52.30
43884;DHT22;29544;52.018;5.810;2023-03-20T01:41:19;19.20;52.30
43884;DHT22;29544;52.018;5.810;2023-03-20T01:43:47;19.20;52.40
43884;DHT22;29544;52.018;5.810;2023-03-20T01:46:14;19.20;52.30
43884;DHT22;29544;52.018;5.810;2023-03-20T01:51:26;19.10;52.30
43884;DHT22;29544;52.018;5.810;2023-03-20T01:54:09;19.20;52.30
43884;DHT22;29544;52.018;5.810;2023-03-20T01:56:40;19.10;52.30
43884;DHT22;29544;52.018;5.810;2023-03-20T01:59:22;19.10;52.30
43884;DHT22;29544;52.018;5.810;2023-03-20T02:01:49;19.10;52.30
43884;DHT22;29544;52.018;5.810;2023-03-20T02:04:16;19.10;52.40
43884;DHT22;29544;52.018;5.810;2023-03-20T02:06:43;19.10;52.90
43884;DHT22;29544;52.018;5.810;2023-03-20T02:09:09;19.10;52.30
43884;DHT22;29544;52.018;5.810;2023-03-20T02:11:36;19.00;52.30
43884;DHT22;29544;52.018;5.810;2023-03-20T02:14:03;19.10;52.30
43884;DHT22;29544;52.018;5.810;2023-03-20T02:16:29;19.00;52.30
43884;DHT22;29544;52.018;5.810;2023-03-20T02:18:56;19.00;52.30
43884;DHT22;29544;52.018;5.810;2023-03-20T02:27:32;19.00;52.30
43884;DHT22;29544;52.018;5.810;2023-03-20T02:30:23;19.00;52.30
43884;DHT22;29544;52.018;5.810;2023-03-20T02:39:14;18.90;52.30
43884;DHT22;29544;52.018;5.810;2023-03-20T02:42:18;18.90;52.30
43884;DHT22;29544;52.018;5.810;2023-03-20T02:48:03;18.80;52.30
43884;DHT22;29544;52.018;5.810;2023-03-20T02:50:39;18.80;52.30
43884;DHT22;29544;52.018;5.810;2023-03-20T02:53:23;18.90;52.30
43884;DHT22;29544;52.018;5.810;2023-03-20T02:59:11;18.80;52.30
43884;DHT22;29544;52.018;5.810;2023-03-20T03:01:43;18.80;52.30
43884;DHT22;29544;52.018;5.810;2023-03-20T03:04:21;18.80;52.30
43884;DHT22;29544;52.018;5.810;2023-03-20T03:06:49;18.80;52.30
43884;DHT22;29544;52.018;5.810;2023-03-20T03:09:17;18.80;52.30
43884;DHT22;29544;52.018;5.810;2023-03-20T03:11:48;18.70;52.30
43884;DHT22;29544;52.018;5.810;2023-03-20T03:14:26;18.70;52.30
43884;DHT22;29544;52.018;5.810;2023-03-20T03:16:55;18.70;52.30
43884;DHT22;29544;52.018;5.810;2023-03-20T03:19:23;18.70;52.30
43884;DHT22;29544;52.018;5.810;2023-03-20T03:21:50;18.70;52.30
43884;DHT22;29544;52.018;5.810;2023-03-20T03:24:28;18.70;52.30
43884;DHT22;29544;52.018;5.810;2023-03-20T03:26:55;18.70;52.30
43884;DHT22;29544;52.018;5.810;2023-03-20T03:29:22;18.70;52.30
43884;DHT22;29544;52.018;5.810;2023-03-20T03:31:49;18.70;52.30
43884;DHT22;29544;52.018;5.810;2023-03-20T03:34:16;18.60;52.30
43884;DHT22;29544;52.018;5.810;2023-03-20T03:40:15;18.60;52.30
43884;DHT22;29544;52.018;5.810;2023-03-20T03:42:57;18.60;52.30
43884;DHT22;29544;52.018;5.810;2023-03-20T03:45:36;18.60;52.30
43884;DHT22;29544;52.018;5.810;2023-03-20T03:48:08;18.60;52.30
43884;DHT22;29544;52.018;5.810;2023-03-20T03:50:45;18.60;52.30
43884;DHT22;29544;52.018;5.810;2023-03-20T03:53:16;18.60;52.30
43884;DHT22;29544;52.018;5.810;2023-03-20T03:55:47;18.50;52.30
43884;DHT22;29544;52.018;5.810;2023-03-20T03:58:23;18.60;52.30
43884;DHT22;29544;52.018;5.810;2023-03-20T04:00:53;18.50;52.20
43884;DHT22;29544;52.018;5.810;2023-03-20T04:03:23;18.50;52.20
43884;DHT22;29544;52.018;5.810;2023-03-20T04:05:51;18.50;52.30
43884;DHT22;29544;52.018;5.810;2023-03-20T04:08:18;18.50;52.20
43884;DHT22;29544;52.018;5.810;2023-03-20T04:10:44;18.50;52.20
43884;DHT22;29544;52.018;5.810;2023-03-20T04:13:10;18.50;52.30
43884;DHT22;29544;52.018;5.810;2023-03-20T04:15:36;18.50;52.30
43884;DHT22;29544;52.018;5.810;2023-03-20T04:18:03;18.50;52.20
43884;DHT22;29544;52.018;5.810;2023-03-20T04:20:28;18.50;52.30
43884;DHT22;29544;52.018;5.810;2023-03-20T04:22:54;18.40;52.20
43884;DHT22;29544;52.018;5.810;2023-03-20T04:25:22;18.40;52.20
43884;DHT22;29544;52.018;5.810;2023-03-20T04:27:48;18.40;52.20
43884;DHT22;29544;52.018;5.810;2023-03-20T04:30:14;18.40;52.20
43884;DHT22;29544;52.018;5.810;2023-03-20T04:32:40;18.40;52.20
43884;DHT22;29544;52.018;5.810;2023-03-20T04:35:06;18.40;52.20
43884;DHT22;29544;52.018;5.810;2023-03-20T04:37:32;18.40;52.20
43884;DHT22;29544;52.018;5.810;2023-03-20T04:39:57;18.40;52.20
43884;DHT22;29544;52.018;5.810;2023-03-20T04:42:23;18.40;52.20
43884;DHT22;29544;52.018;5.810;2023-03-20T04:44:49;18.40;52.30
43884;DHT22;29544;52.018;5.810;2023-03-20T04:47:14;18.40;52.20
43884;DHT22;29544;52.018;5.810;2023-03-20T04:49:40;18.30;52.20
43884;DHT22;29544;52.018;5.810;2023-03-20T04:52:05;18.30;52.20
43884;DHT22;29544;52.018;5.810;2023-03-20T04:54:31;18.30;52.20
43884;DHT22;29544;52.018;5.810;2023-03-20T04:56:56;18.30;52.20
43884;DHT22;29544;52.018;5.810;2023-03-20T04:59:22;18.30;52.20
43884;DHT22;29544;52.018;5.810;2023-03-20T05:01:47;18.30;52.20
43884;DHT22;29544;52.018;5.810;2023-03-20T05:04:13;18.30;52.20
43884;DHT22;29544;52.018;5.810;2023-03-20T05:06:38;18.30;52.20
43884;DHT22;29544;52.018;5.810;2023-03-20T05:09:04;18.20;52.10
43884;DHT22;29544;52.018;5.810;2023-03-20T05:11:30;18.20;52.10
43884;DHT22;29544;52.018;5.810;2023-03-20T05:13:55;18.20;52.20
43884;DHT22;29544;52.018;5.810;2023-03-20T05:16:21;18.20;52.20
43884;DHT22;29544;52.018;5.810;2023-03-20T05:18:47;18.20;52.20
43884;DHT22;29544;52.018;5.810;2023-03-20T05:21:12;18.20;52.20
43884;DHT22;29544;52.018;5.810;2023-03-20T05:23:38;18.20;52.20
43884;DHT22;29544;52.018;5.810;2023-03-20T05:26:04;18.20;52.20
43884;DHT22;29544;52.018;5.810;2023-03-20T05:28:30;18.20;52.10
43884;DHT22;29544;52.018;5.810;2023-03-20T05:30:56;18.20;52.20
43884;DHT22;29544;52.018;5.810;2023-03-20T05:33:21;18.10;52.10
43884;DHT22;29544;52.018;5.810;2023-03-20T05:35:47;18.20;52.20
43884;DHT22;29544;52.018;5.810;2023-03-20T05:38:12;18.20;52.10
43884;DHT22;29544;52.018;5.810;2023-03-20T05:40:38;18.10;52.10
43884;DHT22;29544;52.018;5.810;2023-03-20T05:43:06;18.10;52.10
43884;DHT22;29544;52.018;5.810;2023-03-20T05:45:31;18.10;52.10
43884;DHT22;29544;52.018;5.810;2023-03-20T05:47:57;18.10;52.10
43884;DHT22;29544;52.018;5.810;2023-03-20T05:50:22;18.10;52.10
43884;DHT22;29544;52.018;5.810;2023-03-20T05:52:48;18.10;52.10
43884;DHT22;29544;52.018;5.810;2023-03-20T05:55:14;18.10;52.10
43884;DHT22;29544;52.018;5.810;2023-03-20T05:57:40;18.10;52.10
43884;DHT22;29544;52.018;5.810;2023-03-20T06:00:07;18.00;52.10
43884;DHT22;29544;52.018;5.810;2023-03-20T06:02:33;18.10;52.10
43884;DHT22;29544;52.018;5.810;2023-03-20T06:04:59;18.00;52.10
43884;DHT22;29544;52.018;5.810;2023-03-20T06:07:24;18.00;52.20
43884;DHT22;29544;52.018;5.810;2023-03-20T06:09:50;18.00;52.10
43884;DHT22;29544;52.018;5.810;2023-03-20T06:12:16;18.00;52.20
43884;DHT22;29544;52.018;5.810;2023-03-20T06:14:42;18.00;52.10
43884;DHT22;29544;52.018;5.810;2023-03-20T06:17:07;18.00;52.10
43884;DHT22;29544;52.018;5.810;2023-03-20T06:19:33;18.00;52.20
43884;DHT22;29544;52.018;5.810;2023-03-20T06:21:59;18.00;52.10
43884;DHT22;29544;52.018;5.810;2023-03-20T06:24:24;18.00;52.10
43884;DHT22;29544;52.018;5.810;2023-03-20T06:26:50;17.90;52.10
43884;DHT22;29544;52.018;5.810;2023-03-20T06:29:15;18.00;52.10
43884;DHT22;29544;52.018;5.810;2023-03-20T06:31:41;17.90;52.10
43884;DHT22;29544;52.018;5.810;2023-03-20T06:34:07;17.90;52.10
43884;DHT22;29544;52.018;5.810;2023-03-20T06:36:32;17.90;52.70
43884;DHT22;29544;52.018;5.810;2023-03-20T06:38:58;17.90;52.10
43884;DHT22;29544;52.018;5.810;2023-03-20T06:41:24;17.90;52.20
43884;DHT22;29544;52.018;5.810;2023-03-20T06:43:50;17.90;52.10
43884;DHT22;29544;52.018;5.810;2023-03-20T06:46:15;17.90;52.10
43884;DHT22;29544;52.018;5.810;2023-03-20T06:48:41;17.90;52.10
43884;DHT22;29544;52.018;5.810;2023-03-20T06:51:06;17.90;52.10
43884;DHT22;29544;52.018;5.810;2023-03-20T06:53:32;17.90;52.10
43884;DHT22;29544;52.018;5.810;2023-03-20T06:55:58;17.90;52.10
43884;DHT22;29544;52.018;5.810;2023-03-20T06:58:24;17.80;52.10
43884;DHT22;29544;52.018;5.810;2023-03-20T07:00:49;17.90;52.10
43884;DHT22;29544;52.018;5.810;2023-03-20T07:03:16;17.80;52.10
43884;DHT22;29544;52.018;5.810;2023-03-20T07:05:42;17.80;52.10
43884;DHT22;29544;52.018;5.810;2023-03-20T07:08:07;17.80;52.10
43884;DHT22;29544;52.018;5.810;2023-03-20T07:10:33;17.80;52.10
43884;DHT22;29544;52.018;5.810;2023-03-20T07:12:59;17.80;52.70
43884;DHT22;29544;52.018;5.810;2023-03-20T07:15:25;17.80;52.10
43884;DHT22;29544;52.018;5.810;2023-03-20T07:17:51;17.80;52.10
43884;DHT22;29544;52.018;5.810;2023-03-20T07:20:18;17.70;52.10
43884;DHT22;29544;52.018;5.810;2023-03-20T07:22:43;17.70;52.00
43884;DHT22;29544;52.018;5.810;2023-03-20T07:25:09;17.70;52.00
43884;DHT22;29544;52.018;5.810;2023-03-20T07:27:35;17.70;52.10
43884;DHT22;29544;52.018;5.810;2023-03-20T07:30:03;17.70;52.10
43884;DHT22;29544;52.018;5.810;2023-03-20T07:32:29;17.70;52.10
43884;DHT22;29544;52.018;5.810;2023-03-20T07:34:54;17.70;52.10
43884;DHT22;29544;52.018;5.810;2023-03-20T07:37:20;17.70;52.10
43884;DHT22;29544;52.018;5.810;2023-03-20T07:39:46;17.70;52.20
43884;DHT22;29544;52.018;5.810;2023-03-20T07:42:11;17.70;52.80
43884;DHT22;29544;52.018;5.810;2023-03-20T07:44:38;17.70;52.20
43884;DHT22;29544;52.018;5.810;2023-03-20T07:47:04;17.80;52.40
43884;DHT22;29544;52.018;5.810;2023-03-20T07:49:30;17.80;52.50
43884;DHT22;29544;52.018;5.810;2023-03-20T07:51:56;17.80;53.00
43884;DHT22;29544;52.018;5.810;2023-03-20T07:54:22;17.70;51.80
43884;DHT22;29544;52.018;5.810;2023-03-20T07:56:47;17.50;51.90
43884;DHT22;29544;52.018;5.810;2023-03-20T07:59:14;17.30;51.80
43884;DHT22;29544;52.018;5.810;2023-03-20T08:01:40;17.20;51.80
43884;DHT22;29544;52.018;5.810;2023-03-20T08:04:05;17.20;51.90
43884;DHT22;29544;52.018;5.810;2023-03-20T08:06:31;17.20;51.20
43884;DHT22;29544;52.018;5.810;2023-03-20T08:08:57;17.00;51.40
43884;DHT22;29544;52.018;5.810;2023-03-20T08:11:22;17.00;51.50
43884;DHT22;29544;52.018;5.810;2023-03-20T08:13:48;17.10;51.80
43884;DHT22;29544;52.018;5.810;2023-03-20T08:16:14;17.20;51.60
43884;DHT22;29544;52.018;5.810;2023-03-20T08:18:39;17.10;50.80
43884;DHT22;29544;52.018;5.810;2023-03-20T08:21:07;17.00;50.90
43884;DHT22;29544;52.018;5.810;2023-03-20T08:23:32;17.00;51.20
43884;DHT22;29544;52.018;5.810;2023-03-20T08:25:58;16.90;51.70
43884;DHT22;29544;52.018;5.810;2023-03-20T08:28:23;17.10;51.60
43884;DHT22;29544;52.018;5.810;2023-03-20T08:30:49;17.00;51.30
43884;DHT22;29544;52.018;5.810;2023-03-20T08:33:16;17.10;51.20
43884;DHT22;29544;52.018;5.810;2023-03-20T08:35:42;16.80;51.30
43884;DHT22;29544;52.018;5.810;2023-03-20T08:38:14;16.70;51.40
43884;DHT22;29544;52.018;5.810;2023-03-20T08:40:42;16.60;51.50
43884;DHT22;29544;52.018;5.810;2023-03-20T08:43:08;16.50;51.30
43884;DHT22;29544;52.018;5.810;2023-03-20T08:45:33;16.70;51.60
43884;DHT22;29544;52.018;5.810;2023-03-20T08:47:59;16.80;51.40
43884;DHT22;29544;52.018;5.810;2023-03-20T08:50:25;16.70;51.30
43884;DHT22;29544;52.018;5.810;2023-03-20T08:52:51;16.60;50.90
43884;DHT22;29544;52.018;5.810;2023-03-20T08:55:16;16.60;51.10
43884;DHT22;29544;52.018;5.810;2023-03-20T08:57:42;16.40;51.20
43884;DHT22;29544;52.018;5.810;2023-03-20T09:00:11;16.30;51.70
43884;DHT22;29544;52.018;5.810;2023-03-20T09:02:37;16.30;51.70
43884;DHT22;29544;52.018;5.810;2023-03-20T09:05:03;16.20;51.70
43884;DHT22;29544;52.018;5.810;2023-03-20T09:07:28;16.20;51.60
43884;DHT22;29544;52.018;5.810;2023-03-20T09:09:54;16.30;51.50
43884;DHT22;29544;52.018;5.810;2023-03-20T09:12:19;16.10;51.50
43884;DHT22;29544;52.018;5.810;2023-03-20T09:14:45;16.20;51.80
43884;DHT22;29544;52.018;5.810;2023-03-20T09:17:10;16.20;52.30
43884;DHT22;29544;52.018;5.810;2023-03-20T09:19:36;16.10;52.10
43884;DHT22;29544;52.018;5.810;2023-03-20T09:22:08;16.00;51.30
43884;DHT22;29544;52.018;5.810;2023-03-20T09:24:33;16.10;51.40
43884;DHT22;29544;52.018;5.810;2023-03-20T09:26:59;16.10;51.50
43884;DHT22;29544;52.018;5.810;2023-03-20T09:29:26;16.00;51.40
43884;DHT22;29544;52.018;5.810;2023-03-20T09:31:54;16.00;51.40
43884;DHT22;29544;52.018;5.810;2023-03-20T09:34:20;16.00;51.40
43884;DHT22;29544;52.018;5.810;2023-03-20T09:36:46;15.90;51.50
43884;DHT22;29544;52.018;5.810;2023-03-20T09:39:11;16.00;51.60
43884;DHT22;29544;52.018;5.810;2023-03-20T09:41:38;15.90;51.30
43884;DHT22;29544;52.018;5.810;2023-03-20T09:51:57;15.80;52.20
43884;DHT22;29544;52.018;5.810;2023-03-20T09:54:36;15.70;52.30
43884;DHT22;29544;52.018;5.810;2023-03-20T09:57:03;15.90;52.20
43884;DHT22;29544;52.018;5.810;2023-03-20T09:59:31;15.80;52.40
43884;DHT22;29544;52.018;5.810;2023-03-20T10:02:07;15.70;52.50
43884;DHT22;29544;52.018;5.810;2023-03-20T10:04:38;15.70;52.50
43884;DHT22;29544;52.018;5.810;2023-03-20T10:07:04;15.80;52.50
43884;DHT22;29544;52.018;5.810;2023-03-20T10:09:31;16.00;52.90
43884;DHT22;29544;52.018;5.810;2023-03-20T10:20:12;16.50;52.80
43884;DHT22;29544;52.018;5.810;2023-03-20T10:22:48;16.60;52.80
43884;DHT22;29544;52.018;5.810;2023-03-20T10:25:29;16.60;52.80
43884;DHT22;29544;52.018;5.810;2023-03-20T10:30:57;16.70;52.70
43884;DHT22;29544;52.018;5.810;2023-03-20T10:38:59;16.80;52.60
43884;DHT22;29544;52.018;5.810;2023-03-20T10:41:34;16.90;52.60
43884;DHT22;29544;52.018;5.810;2023-03-20T10:44:01;16.90;52.50
43884;DHT22;29544;52.018;5.810;2023-03-20T10:46:30;16.90;52.50
43884;DHT22;29544;52.018;5.810;2023-03-20T10:49:27;17.00;52.50
43884;DHT22;29544;52.018;5.810;2023-03-20T10:51:50;17.00;52.50
43884;DHT22;29544;52.018;5.810;2023-03-20T10:54:20;17.00;52.40
43884;DHT22;29544;52.018;5.810;2023-03-20T10:56:48;17.00;52.40
43884;DHT22;29544;52.018;5.810;2023-03-20T10:59:25;17.00;52.40
43884;DHT22;29544;52.018;5.810;2023-03-20T11:01:51;17.10;52.40
43884;DHT22;29544;52.018;5.810;2023-03-20T11:04:17;17.10;52.50
43884;DHT22;29544;52.018;5.810;2023-03-20T11:06:54;17.10;52.40
43884;DHT22;29544;52.018;5.810;2023-03-20T11:09:23;17.10;52.40
43884;DHT22;29544;52.018;5.810;2023-03-20T11:11:55;17.10;52.40
43884;DHT22;29544;52.018;5.810;2023-03-20T11:14:25;17.10;52.60
43884;DHT22;29544;52.018;5.810;2023-03-20T11:16:53;17.20;53.60
43884;DHT22;29544;52.018;5.810;2023-03-20T11:19:20;17.20;54.10
43884;DHT22;29544;52.018;5.810;2023-03-20T11:21:49;17.30;54.30
43884;DHT22;29544;52.018;5.810;2023-03-20T11:24:40;17.30;54.20
43884;DHT22;29544;52.018;5.810;2023-03-20T11:27:27;17.40;54.30
43884;DHT22;29544;52.018;5.810;2023-03-20T11:29:54;17.40;54.40
43884;DHT22;29544;52.018;5.810;2023-03-20T11:35:18;17.50;54.50
43884;DHT22;29544;52.018;5.810;2023-03-20T11:37:46;17.50;54.50
43884;DHT22;29544;52.018;5.810;2023-03-20T11:40:21;17.50;54.50
43884;DHT22;29544;52.018;5.810;2023-03-20T11:42:52;17.60;54.50
43884;DHT22;29544;52.018;5.810;2023-03-20T11:45:18;17.60;54.40
43884;DHT22;29544;52.018;5.810;2023-03-20T11:47:49;17.60;54.30
43884;DHT22;29544;52.018;5.810;2023-03-20T11:50:40;17.70;54.30
43884;DHT22;29544;52.018;5.810;2023-03-20T11:55:59;17.70;54.10
43884;DHT22;29544;52.018;5.810;2023-03-20T11:58:25;17.70;54.00
43884;DHT22;29544;52.018;5.810;2023-03-20T12:00:54;17.80;54.00
43884;DHT22;29544;52.018;5.810;2023-03-20T12:03:39;17.70;53.80
43884;DHT22;29544;52.018;5.810;2023-03-20T12:06:08;17.80;53.80
43884;DHT22;29544;52.018;5.810;2023-03-20T12:08:38;17.80;53.60
43884;DHT22;29544;52.018;5.810;2023-03-20T12:14:19;17.80;53.40
43884;DHT22;29544;52.018;5.810;2023-03-20T12:16:48;17.80;53.30
43884;DHT22;29544;52.018;5.810;2023-03-20T12:19:19;17.80;53.80
43884;DHT22;29544;52.018;5.810;2023-03-20T12:22:06;17.90;53.20
43884;DHT22;29544;52.018;5.810;2023-03-20T12:24:42;17.80;53.10
43884;DHT22;29544;52.018;5.810;2023-03-20T12:27:23;17.90;53.10
43884;DHT22;29544;52.018;5.810;2023-03-20T12:35:23;17.90;53.30
43884;DHT22;29544;52.018;5.810;2023-03-20T12:37:50;17.90;53.20
43884;DHT22;29544;52.018;5.810;2023-03-20T12:40:17;17.90;53.20
43884;DHT22;29544;52.018;5.810;2023-03-20T12:43:13;17.90;53.10
43884;DHT22;29544;52.018;5.810;2023-03-20T12:45:50;17.90;53.20
43884;DHT22;29544;52.018;5.810;2023-03-20T12:48:50;17.90;53.20
43884;DHT22;29544;52.018;5.810;2023-03-20T12:51:34;17.90;53.20
43884;DHT22;29544;52.018;5.810;2023-03-20T13:02:40;17.80;53.10
43884;DHT22;29544;52.018;5.810;2023-03-20T13:05:28;17.80;53.10
43884;DHT22;29544;52.018;5.810;2023-03-20T13:08:17;17.80;53.10
43884;DHT22;29544;52.018;5.810;2023-03-20T13:10:59;17.80;53.10
43884;DHT22;29544;52.018;5.810;2023-03-20T13:13:51;17.80;53.10
43884;DHT22;29544;52.018;5.810;2023-03-20T13:22:05;17.70;53.10
43884;DHT22;29544;52.018;5.810;2023-03-20T13:24:41;17.80;53.10
43884;DHT22;29544;52.018;5.810;2023-03-20T13:30:14;17.70;53.10
43884;DHT22;29544;52.018;5.810;2023-03-20T13:38:15;17.70;53.20
43884;DHT22;29544;52.018;5.810;2023-03-20T13:40:45;17.70;53.20
43884;DHT22;29544;52.018;5.810;2023-03-20T13:46:49;17.70;53.30
43884;DHT22;29544;52.018;5.810;2023-03-20T13:49:35;17.70;53.40
43884;DHT22;29544;52.018;5.810;2023-03-20T13:58:03;17.60;53.40
43884;DHT22;29544;52.018;5.810;2023-03-20T14:00:42;17.60;53.40
43884;DHT22;29544;52.018;5.810;2023-03-20T14:03:26;17.60;53.30
43884;DHT22;29544;52.018;5.810;2023-03-20T14:05:54;17.60;53.30
43884;DHT22;29544;52.018;5.810;2023-03-20T14:11:05;17.60;54.00
43884;DHT22;29544;52.018;5.810;2023-03-20T14:13:32;17.50;53.30
43884;DHT22;29544;52.018;5.810;2023-03-20T14:16:02;17.60;53.40
43884;DHT22;29544;52.018;5.810;2023-03-20T14:18:29;17.50;53.30
43884;DHT22;29544;52.018;5.810;2023-03-20T14:21:11;17.60;54.00
43884;DHT22;29544;52.018;5.810;2023-03-20T14:23:39;17.70;54.30
43884;DHT22;29544;52.018;5.810;2023-03-20T14:26:18;17.70;54.30
43884;DHT22;29544;52.018;5.810;2023-03-20T14:28:52;17.70;54.30
43884;DHT22;29544;52.018;5.810;2023-03-20T14:31:24;17.70;54.30
43884;DHT22;29544;52.018;5.810;2023-03-20T14:33:59;17.80;54.30
43884;DHT22;29544;52.018;5.810;2023-03-20T14:36:27;17.80;54.20
43884;DHT22;29544;52.018;5.810;2023-03-20T14:39:14;17.80;54.20
43884;DHT22;29544;52.018;5.810;2023-03-20T14:48:06;17.90;54.10
43884;DHT22;29544;52.018;5.810;2023-03-20T15:01:07;18.00;53.90
43884;DHT22;29544;52.018;5.810;2023-03-20T15:03:33;18.00;54.50
43884;DHT22;29544;52.018;5.810;2023-03-20T15:06:04;18.00;53.90
43884;DHT22;29544;52.018;5.810;2023-03-20T15:08:34;18.00;53.80
43884;DHT22;29544;52.018;5.810;2023-03-20T15:11:06;18.00;53.80
43884;DHT22;29544;52.018;5.810;2023-03-20T15:13:34;18.00;54.30
43884;DHT22;29544;52.018;5.810;2023-03-20T15:16:12;18.00;53.80
43884;DHT22;29544;52.018;5.810;2023-03-20T15:18:44;18.00;53.80
43884;DHT22;29544;52.018;5.810;2023-03-20T15:21:16;17.90;53.70
43884;DHT22;29544;52.018;5.810;2023-03-20T15:23:43;17.90;53.60
43884;DHT22;29544;52.018;5.810;2023-03-20T15:26:14;17.90;53.60
43884;DHT22;29544;52.018;5.810;2023-03-20T15:28:40;17.80;53.50
43884;DHT22;29544;52.018;5.810;2023-03-20T15:31:32;17.80;53.50
43884;DHT22;29544;52.018;5.810;2023-03-20T15:34:00;17.80;53.60
43884;DHT22;29544;52.018;5.810;2023-03-20T15:36:28;17.80;53.60
43884;DHT22;29544;52.018;5.810;2023-03-20T15:39:09;17.80;53.60
43884;DHT22;29544;52.018;5.810;2023-03-20T15:41:37;17.80;53.80
43884;DHT22;29544;52.018;5.810;2023-03-20T15:44:14;17.80;53.80
43884;DHT22;29544;52.018;5.810;2023-03-20T15:47:11;17.80;53.90
43884;DHT22;29544;52.018;5.810;2023-03-20T15:49:35;18.00;54.00
43884;DHT22;29544;52.018;5.810;2023-03-20T15:52:15;18.00;54.00
43884;DHT22;29544;52.018;5.810;2023-03-20T15:54:42;18.00;54.10
43884;DHT22;29544;52.018;5.810;2023-03-20T15:57:12;18.10;54.00
43884;DHT22;29544;52.018;5.810;2023-03-20T15:59:41;18.10;53.90
43884;DHT22;29544;52.018;5.810;2023-03-20T16:02:10;18.20;53.80
43884;DHT22;29544;52.018;5.810;2023-03-20T16:04:46;18.20;53.80
43884;DHT22;29544;52.018;5.810;2023-03-20T16:07:26;18.20;53.70
43884;DHT22;29544;52.018;5.810;2023-03-20T16:09:53;18.20;53.60
43884;DHT22;29544;52.018;5.810;2023-03-20T16:12:18;18.30;53.60
43884;DHT22;29544;52.018;5.810;2023-03-20T16:14:46;18.30;53.50
43884;DHT22;29544;52.018;5.810;2023-03-20T16:17:13;18.30;53.40
43884;DHT22;29544;52.018;5.810;2023-03-20T16:19:39;18.40;53.40
43884;DHT22;29544;52.018;5.810;2023-03-20T16:22:22;18.40;53.40
43884;DHT22;29544;52.018;5.810;2023-03-20T16:24:51;18.40;53.30
43884;DHT22;29544;52.018;5.810;2023-03-20T16:27:29;18.30;53.20
43884;DHT22;29544;52.018;5.810;2023-03-20T16:29:56;18.40;53.20
43884;DHT22;29544;52.018;5.810;2023-03-20T16:32:31;18.30;53.10
43884;DHT22;29544;52.018;5.810;2023-03-20T16:34:57;18.40;53.10
43884;DHT22;29544;52.018;5.810;2023-03-20T16:37:29;18.40;53.00
43884;DHT22;29544;52.018;5.810;2023-03-20T16:40:48;18.40;53.10
43884;DHT22;29544;52.018;5.810;2023-03-20T16:42:48;18.40;53.00
43884;DHT22;29544;52.018;5.810;2023-03-20T16:45:40;18.40;53.00
43884;DHT22;29544;52.018;5.810;2023-03-20T16:48:29;18.40;52.90
43884;DHT22;29544;52.018;5.810;2023-03-20T16:53:45;18.40;52.90
43884;DHT22;29544;52.018;5.810;2023-03-20T16:56:33;18.40;52.90
43884;DHT22;29544;52.018;5.810;2023-03-20T16:59:06;18.40;52.90
43884;DHT22;29544;52.018;5.810;2023-03-20T17:01:32;18.40;52.90
43884;DHT22;29544;52.018;5.810;2023-03-20T17:06:43;18.50;52.90
43884;DHT22;29544;52.018;5.810;2023-03-20T17:11:48;18.40;52.80
43884;DHT22;29544;52.018;5.810;2023-03-20T17:14:14;18.50;52.90
43884;DHT22;29544;52.018;5.810;2023-03-20T17:16:40;18.50;52.90
43884;DHT22;29544;52.018;5.810;2023-03-20T17:19:12;18.50;52.80
43884;DHT22;29544;52.018;5.810;2023-03-20T17:21:39;18.50;52.80
43884;DHT22;29544;52.018;5.810;2023-03-20T17:24:05;18.50;52.80
43884;DHT22;29544;52.018;5.810;2023-03-20T17:26:31;18.50;52.80
43884;DHT22;29544;52.018;5.810;2023-03-20T17:28:56;18.50;53.30
43884;DHT22;29544;52.018;5.810;2023-03-20T17:31:22;18.50;52.70
43884;DHT22;29544;52.018;5.810;2023-03-20T17:33:48;18.50;52.70
43884;DHT22;29544;52.018;5.810;2023-03-20T17:36:26;18.50;53.30
43884;DHT22;29544;52.018;5.810;2023-03-20T17:38:53;18.50;52.70
43884;DHT22;29544;52.018;5.810;2023-03-20T17:41:19;18.50;52.70
43884;DHT22;29544;52.018;5.810;2023-03-20T17:43:46;18.50;52.70
43884;DHT22;29544;52.018;5.810;2023-03-20T17:46:23;18.50;52.70
43884;DHT22;29544;52.018;5.810;2023-03-20T17:51:54;18.50;52.60
43884;DHT22;29544;52.018;5.810;2023-03-20T17:54:19;18.50;52.60
43884;DHT22;29544;52.018;5.810;2023-03-20T17:56:45;18.50;52.60